Time;durP1;ratioP1;P1;durP2;ratioP2;P2;SDS_P1;SDS_P2;PMS_P1;PMS_P2;Temp;Humidity;BMP_temperature;BMP_pressure;BME280_temperature;BME280_humidity;BME280_pressure;Samples;Min_cycle;Max_cycle;Signal;HPM_P1;HPM_P2
2021/07/02 00:04:27;;;;;;;54.95;21.40;;;14.90;99.90;;;;;;12388078;28;20093;-44
2021/07/02 00:10:29;;;;;;;48.38;20.45;;;15.00;99.90;;;;;;12391294;28;20108;-40
2021/07/02 00:16:33;;;;;;;57.65;20.27;;;14.80;99.90;;;;;;12386748;28;20484;-40
2021/07/02 00:22:35;;;;;;;49.63;20.25;;;14.90;99.90;;;;;;12381514;28;20046;-41
2021/07/02 00:28:38;;;;;;;51.80;19.83;;;14.80;99.90;;;;;;12394240;28;20401;-42
2021/07/02 00:34:40;;;;;;;50.15;19.65;;;14.70;99.90;;;;;;12378000;28;20076;-41
2021/07/02 00:40:42;;;;;;;47.40;19.42;;;14.80;99.90;;;;;;12394862;28;20445;-41
2021/07/02 00:46:44;;;;;;;44.08;19.02;;;14.80;99.90;;;;;;12393446;28;20530;-40
2021/07/02 00:52:46;;;;;;;48.40;20.08;;;14.70;99.90;;;;;;12390113;28;20049;-40
2021/07/02 00:58:48;;;;;;;44.05;20.30;;;14.60;99.90;;;;;;12395454;28;20050;-42
2021/07/02 01:04:50;;;;;;;51.95;20.70;;;14.70;99.90;;;;;;12394476;28;20069;-41
2021/07/02 01:10:52;;;;;;;51.00;21.25;;;14.60;99.90;;;;;;12386846;28;20054;-41
2021/07/02 01:16:56;;;;;;;56.13;20.77;;;14.50;99.90;;;;;;12391810;28;20537;-41
2021/07/02 01:22:59;;;;;;;43.28;20.95;;;14.50;99.90;;;;;;12386134;28;20125;-41
2021/07/02 01:29:00;;;;;;;48.80;22.23;;;14.60;99.90;;;;;;12392888;28;20054;-42
2021/07/02 01:35:02;;;;;;;41.55;21.20;;;14.50;99.90;;;;;;12395022;28;20058;-42
2021/07/02 01:41:04;;;;;;;48.13;21.15;;;14.60;99.90;;;;;;12400588;28;20171;-42
2021/07/02 01:47:06;;;;;;;50.05;22.70;;;14.50;99.90;;;;;;12397394;28;20053;-41
2021/07/02 01:53:08;;;;;;;49.83;21.83;;;14.70;99.90;;;;;;12400822;28;20053;-40
2021/07/02 01:59:10;;;;;;;50.05;20.65;;;14.60;99.90;;;;;;12397419;28;20109;-41
2021/07/02 02:05:12;;;;;;;45.78;20.15;;;14.60;99.90;;;;;;12399183;28;20058;-42
2021/07/02 02:11:13;;;;;;;44.45;19.90;;;14.70;99.90;;;;;;12397771;28;20045;-41
2021/07/02 02:17:15;;;;;;;40.20;19.67;;;14.70;99.90;;;;;;12407715;28;20100;-41
2021/07/02 02:23:17;;;;;;;43.45;19.48;;;14.70;99.90;;;;;;12395989;28;20046;-41
2021/07/02 02:29:19;;;;;;;37.83;19.20;;;14.70;99.90;;;;;;12402231;28;20046;-41
2021/07/02 02:35:21;;;;;;;35.42;18.80;;;14.70;99.90;;;;;;12395854;28;20511;-41
2021/07/02 02:41:24;;;;;;;40.38;18.40;;;14.70;99.90;;;;;;12396131;28;20137;-40
2021/07/02 02:47:25;;;;;;;32.53;17.80;;;14.60;99.90;;;;;;12395312;28;20046;-41
2021/07/02 02:53:27;;;;;;;32.95;18.80;;;14.60;99.90;;;;;;12396991;28;20046;-42
2021/07/02 02:59:34;;;;;;;38.20;18.83;;;14.50;99.90;;;;;;12399340;28;20879;-40
2021/07/02 03:05:36;;;;;;;32.72;18.52;;;14.60;99.90;;;;;;12395553;28;20133;-41
2021/07/02 03:11:38;;;;;;;40.03;19.30;;;14.50;99.90;;;;;;12391244;28;20108;-40
2021/07/02 03:17:41;;;;;;;37.10;19.15;;;14.60;99.90;;;;;;12393819;28;20119;-40
2021/07/02 03:23:43;;;;;;;39.60;20.42;;;14.50;99.90;;;;;;12391206;28;20062;-40
2021/07/02 03:29:45;;;;;;;35.95;19.00;;;14.50;99.90;;;;;;12391837;28;20053;-43
2021/07/02 03:35:46;;;;;;;29.98;18.00;;;14.40;99.90;;;;;;12393759;28;20440;-40
2021/07/02 03:41:48;;;;;;;33.08;17.83;;;14.40;99.90;;;;;;12395074;28;20050;-40
2021/07/02 03:47:50;;;;;;;37.47;17.45;;;14.30;99.90;;;;;;12390865;28;20062;-41
2021/07/02 03:53:52;;;;;;;33.08;16.65;;;14.40;99.90;;;;;;12397011;28;20132;-40
2021/07/02 03:59:53;;;;;;;35.10;17.38;;;14.40;99.90;;;;;;12394840;28;20119;-42
2021/07/02 04:05:55;;;;;;;36.47;17.52;;;14.30;99.90;;;;;;12393209;28;20466;-42
2021/07/02 04:11:58;;;;;;;40.10;17.60;;;14.30;99.90;;;;;;12392947;28;20111;-40
2021/07/02 04:18:00;;;;;;;35.80;17.27;;;14.40;99.90;;;;;;12386426;28;20644;-41
2021/07/02 04:24:03;;;;;;;36.75;17.65;;;14.40;99.90;;;;;;12391575;28;20054;-41
2021/07/02 04:30:05;;;;;;;39.92;17.30;;;14.40;99.90;;;;;;12391555;28;20046;-40
2021/07/02 04:36:07;;;;;;;37.30;17.15;;;14.40;99.90;;;;;;12390858;28;20091;-41
2021/07/02 04:42:09;;;;;;;33.53;17.75;;;14.40;99.90;;;;;;12393206;28;20054;-41
2021/07/02 04:48:11;;;;;;;38.90;18.00;;;14.30;99.90;;;;;;12384846;28;20053;-40
2021/07/02 04:54:13;;;;;;;44.00;18.70;;;14.50;99.90;;;;;;12389934;28;20193;-41
2021/07/02 05:00:15;;;;;;;38.45;18.13;;;14.40;99.90;;;;;;12393473;28;20062;-41
2021/07/02 05:06:17;;;;;;;35.60;16.90;;;14.50;99.90;;;;;;12392451;28;20042;-40
2021/07/02 05:12:19;;;;;;;37.22;18.33;;;14.60;99.90;;;;;;12397606;28;20115;-41
2021/07/02 05:18:21;;;;;;;34.78;16.92;;;14.70;99.90;;;;;;12389355;28;20491;-41
2021/07/02 05:24:22;;;;;;;35.85;17.35;;;14.70;99.90;;;;;;12391235;28;20057;-40
2021/07/02 05:30:26;;;;;;;29.38;16.65;;;14.80;99.90;;;;;;12393549;28;20141;-41
2021/07/02 05:36:28;;;;;;;37.47;18.67;;;14.90;99.90;;;;;;12397686;28;20974;-41
2021/07/02 05:42:30;;;;;;;41.20;18.90;;;14.80;99.90;;;;;;12387126;28;20104;-40
2021/07/02 05:48:33;;;;;;;32.85;17.67;;;14.90;99.90;;;;;;12393003;28;20116;-41
2021/07/02 05:54:34;;;;;;;35.30;17.17;;;14.90;99.90;;;;;;12388030;28;20981;-41
2021/07/02 06:00:36;;;;;;;36.78;17.88;;;14.80;99.90;;;;;;12386553;28;20379;-41
2021/07/02 06:06:38;;;;;;;33.90;17.63;;;14.80;99.90;;;;;;12394553;28;20058;-41
2021/07/02 06:12:40;;;;;;;36.50;17.98;;;14.80;99.90;;;;;;12390598;28;20936;-41
2021/07/02 06:18:42;;;;;;;41.58;19.63;;;14.80;99.90;;;;;;12391374;28;20062;-40
2021/07/02 06:24:44;;;;;;;40.53;20.33;;;14.90;99.90;;;;;;12394398;28;20047;-41
2021/07/02 06:30:46;;;;;;;34.38;17.70;;;14.80;99.90;;;;;;12395069;28;20042;-40
2021/07/02 06:36:48;;;;;;;38.45;17.77;;;15.00;99.90;;;;;;12393231;28;20107;-41
2021/07/02 06:42:49;;;;;;;30.70;17.38;;;14.90;99.90;;;;;;12394795;28;20111;-42
2021/07/02 06:48:51;;;;;;;30.42;17.17;;;15.00;99.90;;;;;;12397448;28;20145;-40
2021/07/02 06:54:53;;;;;;;36.22;17.10;;;14.90;99.90;;;;;;12393126;28;20065;-41
2021/07/02 07:00:55;;;;;;;35.03;19.95;;;14.90;99.90;;;;;;12394750;28;20050;-41
2021/07/02 07:06:57;;;;;;;35.25;18.48;;;15.00;99.90;;;;;;12395825;28;20054;-41
2021/07/02 07:12:59;;;;;;;38.85;19.10;;;14.90;99.90;;;;;;12397654;28;20383;-41
2021/07/02 07:19:01;;;;;;;32.25;17.42;;;15.00;99.90;;;;;;12393871;28;20104;-41
2021/07/02 07:25:05;;;;;;;37.67;18.40;;;15.00;99.90;;;;;;12393624;28;20049;-40
2021/07/02 07:31:09;;;;;;;32.55;17.95;;;15.00;99.90;;;;;;12389306;28;20491;-40
2021/07/02 07:37:21;;;;;;;33.90;18.15;;;14.90;99.90;;;;;;12399808;28;20051;-41
2021/07/02 07:43:24;;;;;;;34.50;17.92;;;15.00;99.90;;;;;;12395872;28;20127;-40
2021/07/02 07:49:26;;;;;;;32.33;17.38;;;15.00;99.90;;;;;;12399558;28;20087;-41
2021/07/02 07:55:29;;;;;;;32.55;19.25;;;15.00;99.90;;;;;;12391510;28;20049;-40
2021/07/02 08:01:31;;;;;;;39.88;20.15;;;14.90;99.90;;;;;;12391968;28;20053;-40
2021/07/02 08:07:42;;;;;;;39.47;21.27;;;14.90;99.90;;;;;;12393163;28;20119;-43
2021/07/02 08:13:44;;;;;;;34.72;23.63;;;15.00;99.90;;;;;;12386226;28;20046;-44
2021/07/02 08:19:46;;;;;;;41.75;25.70;;;14.80;99.90;;;;;;12395449;28;20061;-41
2021/07/02 08:25:47;;;;;;;45.20;26.70;;;14.80;99.90;;;;;;12393930;28;20038;-41
2021/07/02 08:31:50;;;;;;;38.88;23.95;;;15.10;99.90;;;;;;12388160;28;20064;-41
2021/07/02 08:37:52;;;;;;;38.28;21.92;;;15.50;99.90;;;;;;12387521;28;20462;-40
2021/07/02 08:43:55;;;;;;;37.67;21.58;;;15.40;99.90;;;;;;12378127;28;20097;-41
2021/07/02 08:49:57;;;;;;;33.30;21.23;;;15.80;99.90;;;;;;12389679;28;20054;-42
2021/07/02 08:56:01;;;;;;;34.00;19.63;;;15.80;99.90;;;;;;12387983;28;20856;-42
2021/07/02 09:02:03;;;;;;;41.88;22.33;;;16.00;99.90;;;;;;12383443;28;20100;-41
2021/07/02 09:08:15;;;;;;;34.00;21.60;;;15.90;99.90;;;;;;12391830;28;20461;-41
2021/07/02 09:14:24;;;;;;;33.37;22.73;;;15.90;99.90;;;;;;12386326;28;20050;-42
2021/07/02 09:20:35;;;;;;;31.92;20.55;;;16.00;99.90;;;;;;12392869;28;20484;-41
2021/07/02 09:26:41;;;;;;;36.92;20.55;;;16.10;99.90;;;;;;12390238;28;20042;-43
2021/07/02 09:32:47;;;;;;;29.60;18.38;;;16.10;99.90;;;;;;12390075;28;20487;-41
2021/07/02 09:38:49;;;;;;;33.30;19.83;;;16.10;99.90;;;;;;12390401;28;20046;-42
2021/07/02 09:45:08;;;;;;;31.20;18.83;;;15.70;99.90;;;;;;12389543;28;20054;-41
2021/07/02 09:51:12;;;;;;;32.35;20.42;;;15.80;99.90;;;;;;12393574;28;20083;-42
2021/07/02 09:57:19;;;;;;;36.22;21.20;;;15.70;99.90;;;;;;12394911;28;20054;-41
2021/07/02 10:03:29;;;;;;;32.10;20.45;;;15.80;99.90;;;;;;12403852;28;20116;-41
2021/07/02 10:09:30;;;;;;;33.03;19.73;;;15.80;99.90;;;;;;12398453;28;20471;-41
2021/07/02 10:15:32;;;;;;;28.90;17.85;;;15.80;99.90;;;;;;12405331;28;20923;-41
2021/07/02 10:21:35;;;;;;;27.90;17.50;;;16.00;99.90;;;;;;12400658;28;20085;-41
2021/07/02 10:27:39;;;;;;;27.98;15.82;;;16.20;99.90;;;;;;12402539;28;20042;-41
2021/07/02 10:33:55;;;;;;;22.73;15.68;;;16.30;99.90;;;;;;12402145;28;20849;-42
2021/07/02 10:40:00;;;;;;;25.15;15.77;;;16.10;99.90;;;;;;12396997;28;20084;-43
2021/07/02 10:46:08;;;;;;;23.98;16.77;;;16.20;99.90;;;;;;12400140;28;20266;-41
2021/07/02 10:52:27;;;;;;;25.65;14.05;;;16.20;99.90;;;;;;12398190;28;20074;-41
2021/07/02 10:58:51;;;;;;;28.77;13.93;;;16.40;99.90;;;;;;12399840;28;20144;-42
2021/07/02 11:04:54;;;;;;;22.50;13.45;;;16.30;99.90;;;;;;12397046;28;20087;-41
2021/07/02 11:10:57;;;;;;;24.75;14.18;;;16.30;99.90;;;;;;12396554;28;20053;-41
2021/07/02 11:17:31;;;;;;;21.30;13.10;;;16.40;99.90;;;;;;12391986;28;20049;-41
2021/07/02 11:23:42;;;;;;;20.77;13.35;;;16.50;99.90;;;;;;12398700;28;20111;-40
2021/07/02 11:29:45;;;;;;;19.17;11.43;;;16.90;99.90;;;;;;12399862;28;20053;-42
2021/07/02 11:36:05;;;;;;;19.05;10.38;;;17.20;99.90;;;;;;12396184;28;20053;-41
2021/07/02 11:42:08;;;;;;;21.95;10.52;;;17.20;99.90;;;;;;12395462;28;20054;-42
2021/07/02 11:48:32;;;;;;;18.97;11.63;;;17.30;99.90;;;;;;12391221;28;20127;-41
2021/07/02 11:54:33;;;;;;;18.53;11.47;;;17.30;99.90;;;;;;12394277;28;20054;-41
2021/07/02 12:00:36;;;;;;;21.52;10.77;;;17.40;99.90;;;;;;12387053;28;20074;-41
2021/07/02 12:06:50;;;;;;;12.38;9.48;;;17.50;99.90;;;;;;12390105;28;20042;-43
2021/07/02 12:13:07;;;;;;;13.63;9.00;;;17.60;99.90;;;;;;12389015;28;20047;-42
2021/07/02 12:19:15;;;;;;;15.80;9.25;;;17.70;99.90;;;;;;12395133;28;20396;-41
2021/07/02 12:25:18;;;;;;;16.52;8.95;;;17.80;99.90;;;;;;12390537;28;20050;-41
2021/07/02 12:31:35;;;;;;;10.90;7.90;;;18.20;99.90;;;;;;12383160;28;20054;-41
2021/07/02 12:37:39;;;;;;;14.68;8.43;;;18.30;99.90;;;;;;12385431;28;20482;-41
2021/07/02 12:43:41;;;;;;;12.18;7.90;;;18.30;99.90;;;;;;12388508;28;20046;-41
2021/07/02 12:49:53;;;;;;;11.15;7.95;;;18.20;99.90;;;;;;12388176;28;20062;-40
2021/07/02 12:55:56;;;;;;;16.60;8.38;;;18.20;99.90;;;;;;12394597;28;20108;-41
2021/07/02 13:01:57;;;;;;;16.65;9.32;;;18.10;99.90;;;;;;12386813;28;20053;-41
2021/07/02 13:08:05;;;;;;;12.20;8.40;;;18.40;99.90;;;;;;12395163;28;20060;-41
2021/07/02 13:14:27;;;;;;;13.38;8.82;;;18.50;99.90;;;;;;12383359;28;20111;-41
2021/07/02 13:20:50;;;;;;;13.80;8.95;;;18.20;99.90;;;;;;12395075;28;20049;-40
2021/07/02 13:26:56;;;;;;;13.97;9.03;;;17.90;99.90;;;;;;12392765;28;20050;-41
2021/07/02 13:33:11;;;;;;;13.30;8.13;;;18.10;99.90;;;;;;12384230;28;20284;-40
2021/07/02 13:39:15;;;;;;;11.80;7.65;;;17.90;99.90;;;;;;12395192;28;20054;-40
2021/07/02 13:45:17;;;;;;;13.57;8.07;;;17.90;99.90;;;;;;12388018;28;20056;-40
2021/07/02 13:51:19;;;;;;;11.18;6.93;;;17.90;99.90;;;;;;12388821;28;20177;-40
2021/07/02 13:57:21;;;;;;;9.20;7.15;;;18.00;99.90;;;;;;12392047;28;20058;-40
2021/07/02 14:03:23;;;;;;;13.80;8.32;;;18.10;99.90;;;;;;12394954;28;20380;-41
2021/07/02 14:09:25;;;;;;;14.93;8.93;;;17.90;99.90;;;;;;12385797;28;20100;-40
2021/07/02 14:15:27;;;;;;;13.18;8.98;;;17.90;99.90;;;;;;12390244;28;20050;-41
2021/07/02 14:21:30;;;;;;;14.50;9.00;;;18.40;99.90;;;;;;12386867;28;20050;-41
2021/07/02 14:27:31;;;;;;;12.70;8.55;;;18.60;99.90;;;;;;12385486;28;20046;-40
2021/07/02 14:33:34;;;;;;;13.98;8.82;;;18.80;99.90;;;;;;12382511;28;20050;-40
2021/07/02 14:39:36;;;;;;;12.10;8.80;;;19.10;99.90;;;;;;12389611;28;20049;-40
2021/07/02 14:45:38;;;;;;;14.48;8.85;;;19.00;99.90;;;;;;12395712;28;20096;-41
2021/07/02 14:51:40;;;;;;;11.95;8.27;;;19.10;99.90;;;;;;12394758;28;20093;-40
2021/07/02 14:57:41;;;;;;;12.07;8.55;;;18.90;99.90;;;;;;12393348;28;20079;-41
2021/07/02 15:03:44;;;;;;;13.18;8.43;;;18.70;99.90;;;;;;12397349;28;20658;-42
2021/07/02 15:09:46;;;;;;;13.57;8.45;;;18.50;99.90;;;;;;12400011;28;20097;-40
2021/07/02 15:15:48;;;;;;;15.25;9.52;;;18.40;99.90;;;;;;12391835;28;20096;-40
2021/07/02 15:21:50;;;;;;;13.32;9.00;;;18.20;99.90;;;;;;12397956;28;20081;-40
2021/07/02 15:27:52;;;;;;;12.35;9.32;;;18.20;99.90;;;;;;12397468;28;20568;-40
2021/07/02 15:33:54;;;;;;;13.75;9.27;;;18.20;99.90;;;;;;12398270;28;20093;-40
2021/07/02 15:39:56;;;;;;;13.77;9.82;;;18.30;99.90;;;;;;12394936;28;20111;-41
2021/07/02 15:45:58;;;;;;;14.68;9.55;;;18.30;99.90;;;;;;12393626;28;20785;-42
2021/07/02 15:52:00;;;;;;;11.98;9.55;;;18.30;99.90;;;;;;12397030;28;20062;-41
2021/07/02 15:58:01;;;;;;;13.57;9.65;;;18.20;99.90;;;;;;12395295;28;20077;-40
2021/07/02 16:04:03;;;;;;;14.63;9.40;;;18.30;99.90;;;;;;12393197;28;20046;-41
2021/07/02 16:10:06;;;;;;;14.73;10.07;;;18.30;99.90;;;;;;12392617;28;20109;-40
2021/07/02 16:16:07;;;;;;;13.48;9.90;;;18.20;99.90;;;;;;12388065;28;20058;-41
2021/07/02 16:22:10;;;;;;;16.25;10.07;;;18.30;99.90;;;;;;12396968;28;20053;-40
2021/07/02 16:28:15;;;;;;;16.05;10.15;;;18.30;99.90;;;;;;12391104;28;20443;-41
2021/07/02 16:34:17;;;;;;;16.27;10.20;;;18.20;99.90;;;;;;12384827;28;20054;-40
2021/07/02 16:40:19;;;;;;;17.58;10.50;;;18.10;99.90;;;;;;12386903;28;20141;-42
2021/07/02 16:46:21;;;;;;;12.57;9.45;;;18.10;99.90;;;;;;12384495;28;20061;-41
2021/07/02 16:52:24;;;;;;;16.77;9.98;;;18.10;99.90;;;;;;12389188;28;20156;-41
2021/07/02 16:58:25;;;;;;;13.32;10.60;;;18.00;99.90;;;;;;12389492;28;20104;-41
2021/07/02 17:04:27;;;;;;;19.20;10.95;;;18.00;99.90;;;;;;12385566;28;20128;-41
2021/07/02 17:10:29;;;;;;;15.45;10.60;;;17.90;99.90;;;;;;12388306;28;20095;-40
2021/07/02 17:16:31;;;;;;;20.15;10.15;;;17.80;99.90;;;;;;12388423;28;20046;-41
2021/07/02 17:22:34;;;;;;;14.70;10.32;;;17.80;99.90;;;;;;12392742;28;20062;-40
2021/07/02 17:28:37;;;;;;;15.43;10.35;;;17.70;99.90;;;;;;12392090;28;20050;-40
2021/07/02 17:34:39;;;;;;;18.02;9.98;;;17.80;99.90;;;;;;12388881;28;20399;-40
2021/07/02 17:40:59;;;;;;;16.35;10.38;;;17.80;99.90;;;;;;12389918;28;20062;-40
2021/07/02 17:47:00;;;;;;;17.75;12.10;;;17.80;99.90;;;;;;12389550;28;20055;-42
2021/07/02 17:53:02;;;;;;;14.32;11.35;;;17.80;99.90;;;;;;12392256;28;20050;-40
2021/07/02 17:59:06;;;;;;;13.35;11.18;;;17.80;99.90;;;;;;12387266;28;20407;-40
2021/07/02 18:05:10;;;;;;;16.15;10.98;;;17.80;99.90;;;;;;12384734;28;20054;-41
2021/07/02 18:11:12;;;;;;;;;;;17.80;99.90;;;;;;12389016;28;20558;-41
2021/07/02 18:17:22;;;;;;;13.88;11.15;;;17.90;99.90;;;;;;12384329;28;19925;-42
2021/07/02 18:23:24;;;;;;;17.17;10.68;;;17.90;99.90;;;;;;12400609;28;20050;-40
2021/07/02 18:29:26;;;;;;;15.60;11.20;;;17.90;99.90;;;;;;12393099;28;20045;-40
2021/07/02 18:35:28;;;;;;;15.32;11.40;;;17.80;99.90;;;;;;12393939;28;20049;-41
2021/07/02 18:41:30;;;;;;;14.02;12.20;;;17.80;99.90;;;;;;12396809;28;21358;-41
2021/07/02 18:47:32;;;;;;;16.50;12.45;;;17.70;99.90;;;;;;12398034;28;20054;-41
2021/07/02 18:53:34;;;;;;;15.98;12.10;;;17.70;99.90;;;;;;12394135;28;20045;-40
2021/07/02 18:59:39;;;;;;;16.25;12.18;;;17.60;99.90;;;;;;12394566;28;20062;-40
2021/07/02 19:05:41;;;;;;;15.07;11.43;;;17.60;99.90;;;;;;12390877;28;20038;-41
2021/07/02 19:11:44;;;;;;;14.57;12.05;;;17.50;99.90;;;;;;12398411;28;20046;-41
2021/07/02 19:17:47;;;;;;;15.83;11.90;;;17.50;99.90;;;;;;12388126;28;20090;-40
2021/07/02 19:23:49;;;;;;;15.90;12.57;;;17.40;99.90;;;;;;12389489;28;20042;-41
2021/07/02 19:29:52;;;;;;;17.77;12.85;;;17.30;99.90;;;;;;12392323;28;20101;-40
2021/07/02 19:35:53;;;;;;;17.35;13.38;;;17.20;99.90;;;;;;12389873;28;20616;-42
2021/07/02 19:41:56;;;;;;;17.55;13.02;;;17.10;99.90;;;;;;12392177;28;20049;-41
2021/07/02 19:47:58;;;;;;;21.77;13.38;;;17.10;99.90;;;;;;12394785;28;20046;-40
2021/07/02 19:54:01;;;;;;;18.33;12.98;;;17.00;99.90;;;;;;12386875;28;21074;-40
2021/07/02 20:00:09;;;;;;;20.98;14.32;;;16.90;99.90;;;;;;12387896;28;20062;-41
2021/07/02 20:06:11;;;;;;;23.65;14.57;;;16.70;99.90;;;;;;12387403;28;20057;-40
2021/07/02 20:12:16;;;;;;;21.00;16.67;;;16.50;99.90;;;;;;12386843;28;20049;-40
2021/07/02 20:18:18;;;;;;;20.45;16.48;;;16.20;99.90;;;;;;12385319;28;20410;-40
2021/07/02 20:24:22;;;;;;;23.02;15.55;;;16.00;99.90;;;;;;12392141;28;20042;-41
2021/07/02 20:30:24;;;;;;;18.88;15.43;;;15.90;99.90;;;;;;12384875;28;20077;-41
2021/07/02 20:36:26;;;;;;;21.20;15.77;;;15.90;99.90;;;;;;12389484;28;20049;-41
2021/07/02 20:42:27;;;;;;;21.58;17.15;;;15.80;99.90;;;;;;12388903;28;20111;-41
2021/07/02 20:48:30;;;;;;;22.05;17.70;;;15.60;99.90;;;;;;12386966;28;20125;-41
2021/07/02 20:54:31;;;;;;;28.40;20.13;;;15.80;99.90;;;;;;12391833;28;20053;-42
2021/07/02 21:00:33;;;;;;;26.58;20.17;;;15.60;99.90;;;;;;12387450;28;20042;-42
2021/07/02 21:06:35;;;;;;;23.67;19.75;;;15.50;99.90;;;;;;12386811;28;20108;-40
2021/07/02 21:12:37;;;;;;;27.23;19.60;;;15.50;99.90;;;;;;12386734;28;20081;-40
2021/07/02 21:18:39;;;;;;;26.92;19.33;;;15.50;99.90;;;;;;12391357;28;20673;-41
2021/07/02 21:24:41;;;;;;;23.83;19.60;;;15.40;99.90;;;;;;12391250;28;20965;-40
2021/07/02 21:30:43;;;;;;;25.17;20.05;;;15.30;99.90;;;;;;12379534;28;20142;-40
2021/07/02 21:36:45;;;;;;;26.65;20.58;;;15.40;99.90;;;;;;12389376;28;20445;-40
2021/07/02 21:42:47;;;;;;;28.50;19.73;;;15.30;99.90;;;;;;12389918;28;20039;-41
2021/07/02 21:48:49;;;;;;;24.35;19.48;;;15.30;99.90;;;;;;12384412;28;20042;-40
2021/07/02 21:54:51;;;;;;;25.98;20.73;;;15.20;99.90;;;;;;12391943;28;20069;-40
2021/07/02 22:00:52;;;;;;;24.27;20.42;;;15.30;99.90;;;;;;12403232;28;20101;-40
2021/07/02 22:06:55;;;;;;;24.23;20.45;;;15.30;99.90;;;;;;12394113;28;20049;-41
2021/07/02 22:12:57;;;;;;;31.80;21.88;;;15.30;99.90;;;;;;12395849;28;20050;-40
2021/07/02 22:18:59;;;;;;;27.23;21.52;;;15.30;99.90;;;;;;12400142;28;22676;-40
2021/07/02 22:25:01;;;;;;;26.10;20.67;;;15.30;99.90;;;;;;12393944;28;20096;-40
2021/07/02 22:31:03;;;;;;;27.38;20.90;;;15.30;99.90;;;;;;12396434;28;20089;-40
2021/07/02 22:37:05;;;;;;;24.98;19.98;;;15.20;99.90;;;;;;12396044;28;20486;-40
2021/07/02 22:43:07;;;;;;;26.42;19.77;;;15.20;99.90;;;;;;12398359;28;20653;-41
2021/07/02 22:49:09;;;;;;;27.13;19.90;;;15.20;99.90;;;;;;12391752;28;20475;-41
2021/07/02 22:55:11;;;;;;;26.17;19.60;;;15.20;99.90;;;;;;12398983;28;20662;-40
2021/07/02 23:01:13;;;;;;;26.73;21.83;;;15.10;99.90;;;;;;12396456;28;20049;-40
2021/07/02 23:07:15;;;;;;;26.80;22.05;;;15.10;99.90;;;;;;12397848;28;20050;-41
2021/07/02 23:13:17;;;;;;;25.60;20.98;;;15.10;99.90;;;;;;12395285;28;20093;-40
2021/07/02 23:19:20;;;;;;;28.25;20.42;;;14.90;99.90;;;;;;12399975;28;20137;-41
2021/07/02 23:25:22;;;;;;;25.25;19.98;;;14.80;99.90;;;;;;12397671;28;20384;-42
2021/07/02 23:31:24;;;;;;;30.83;21.67;;;14.70;99.90;;;;;;12388956;28;20046;-40
2021/07/02 23:37:25;;;;;;;27.13;21.38;;;14.80;99.90;;;;;;12389490;28;20058;-42
2021/07/02 23:43:27;;;;;;;27.35;21.27;;;14.80;99.90;;;;;;12393881;28;20042;-40
2021/07/02 23:49:29;;;;;;;26.48;22.17;;;14.80;99.90;;;;;;12391032;28;20054;-40
2021/07/02 23:55:31;;;;;;;31.80;25.98;;;14.60;99.90;;;;;;12390652;28;20054;-40
